createdAt,value
2018-10-05T00:00:18.061Z,102114.50
2018-10-05T00:02:46.145Z,102113.36
2018-10-05T00:05:14.204Z,102105.34
2018-10-05T00:07:42.273Z,102105.83
2018-10-05T00:10:10.341Z,102102.21
2018-10-05T00:12:38.423Z,102108.02
2018-10-05T00:15:06.666Z,102112.79
2018-10-05T00:17:34.820Z,102112.19
2018-10-05T00:20:02.906Z,102106.05
2018-10-05T00:22:30.982Z,102102.70
2018-10-05T00:24:59.048Z,102104.91
2018-10-05T00:27:27.129Z,102106.05
2018-10-05T00:29:55.198Z,102110.48
2018-10-05T00:32:23.325Z,102110.37
2018-10-05T00:34:51.423Z,102102.13
2018-10-05T00:37:19.488Z,102107.09
2018-10-05T00:39:47.570Z,102102.35
2018-10-05T00:42:15.633Z,102102.55
2018-10-05T00:44:43.714Z,102099.29
2018-10-05T00:47:11.777Z,102088.45
2018-10-05T00:49:39.842Z,102092.41
2018-10-05T00:52:07.905Z,102088.23
2018-10-05T00:54:35.987Z,102087.17
2018-10-05T00:57:04.046Z,102085.88
2018-10-05T00:59:32.123Z,102083.66
2018-10-05T01:02:00.199Z,102080.95
2018-10-05T01:04:28.281Z,102083.25
2018-10-05T01:06:56.341Z,102076.16
2018-10-05T01:09:24.421Z,102078.54
2018-10-05T01:11:52.481Z,102080.53
2018-10-05T01:14:20.553Z,102077.01
2018-10-05T01:16:48.618Z,102083.48
2018-10-05T01:19:16.689Z,102090.22
2018-10-05T01:21:44.758Z,102079.17
2018-10-05T01:24:12.832Z,102085.08
2018-10-05T01:26:40.885Z,102084.91
2018-10-05T01:29:08.977Z,102083.94
2018-10-05T01:31:37.042Z,102090.53
2018-10-05T01:34:05.117Z,102096.41
2018-10-05T01:36:33.190Z,102093.47
2018-10-05T01:39:01.261Z,102093.67
2018-10-05T01:41:29.329Z,102086.84
2018-10-05T01:43:57.389Z,102084.96
2018-10-05T01:46:25.464Z,102089.78
2018-10-05T01:48:53.528Z,102080.80
2018-10-05T01:51:31.197Z,102084.14
2018-10-05T01:53:59.695Z,102080.87
2018-10-05T01:56:27.772Z,102085.65
2018-10-05T01:58:55.838Z,102081.78
2018-10-05T02:01:24.026Z,102083.77
2018-10-05T02:03:52.307Z,102077.72
2018-10-05T02:06:20.374Z,102070.58
2018-10-05T02:08:48.529Z,102063.47
2018-10-05T02:11:16.607Z,102068.33
2018-10-05T02:13:44.684Z,102073.06
2018-10-05T02:16:12.749Z,102068.63
2018-10-05T02:18:40.805Z,102063.48
2018-10-05T02:21:08.984Z,102055.66
2018-10-05T02:23:37.283Z,102067.43
2018-10-05T02:26:05.422Z,102059.98
2018-10-05T02:28:33.526Z,102064.98
2018-10-05T02:31:01.710Z,102058.45
2018-10-05T02:33:29.800Z,102060.97
2018-10-05T02:35:57.875Z,102050.52
2018-10-05T02:38:25.934Z,102053.94
2018-10-05T02:40:54.017Z,102050.66
2018-10-05T02:43:22.080Z,102052.24
2018-10-05T02:45:50.163Z,102043.25
2018-10-05T02:48:18.218Z,102037.84
2018-10-05T02:50:46.293Z,102037.61
2018-10-05T02:53:14.393Z,102039.08
2018-10-05T02:55:42.493Z,102038.92
2018-10-05T02:58:10.557Z,102035.06
2018-10-05T03:00:49.978Z,102023.22
2018-10-05T03:03:18.044Z,102024.68
2018-10-05T03:05:46.139Z,102030.91
2018-10-05T03:08:14.203Z,102030.08
2018-10-05T03:10:42.276Z,102026.55
2018-10-05T03:13:10.342Z,102022.72
2018-10-05T03:15:38.406Z,102020.02
2018-10-05T03:18:06.481Z,102014.56
2018-10-05T03:20:34.546Z,102021.02
2018-10-05T03:23:02.612Z,102018.23
2018-10-05T03:25:30.675Z,102024.85
2018-10-05T03:27:58.753Z,102021.17
2018-10-05T03:30:26.810Z,102023.28
2018-10-05T03:32:54.887Z,102017.72
2018-10-05T03:35:22.961Z,102020.84
2018-10-05T03:37:51.150Z,102019.52
2018-10-05T03:40:19.242Z,102019.30
2018-10-05T03:42:47.363Z,102015.69
2018-10-05T03:45:15.462Z,102015.12
2018-10-05T03:47:43.538Z,102016.02
2018-10-05T03:50:11.597Z,102010.05
2018-10-05T03:52:39.725Z,102012.00
2018-10-05T03:55:07.786Z,102010.38
2018-10-05T03:57:35.852Z,102005.45
2018-10-05T04:00:03.913Z,101993.59
2018-10-05T04:02:32.090Z,102000.27
2018-10-05T04:05:00.153Z,101996.36
2018-10-05T04:07:28.282Z,102007.81
2018-10-05T04:09:56.351Z,101997.34
2018-10-05T04:12:24.434Z,101992.34
2018-10-05T04:14:52.491Z,101995.79
2018-10-05T04:17:20.586Z,101991.12
2018-10-05T04:19:48.648Z,101999.20
2018-10-05T04:22:20.933Z,102000.66
2018-10-05T04:24:49.037Z,102003.05
2018-10-05T04:27:17.247Z,102000.34
2018-10-05T04:29:45.234Z,102001.16
2018-10-05T04:32:13.313Z,101999.02
2018-10-05T04:34:41.421Z,101998.52
2018-10-05T04:37:09.519Z,101999.91
2018-10-05T04:39:37.599Z,102005.54
2018-10-05T04:42:05.678Z,102005.88
2018-10-05T04:44:33.764Z,102000.88
2018-10-05T04:47:01.873Z,102000.72
2018-10-05T04:49:30.035Z,101998.83
2018-10-05T04:51:58.028Z,102002.17
2018-10-05T04:54:26.125Z,101996.06
2018-10-05T04:56:54.257Z,101997.22
2018-10-05T04:59:22.269Z,101996.13
2018-10-05T05:01:50.345Z,101998.90
2018-10-05T05:04:18.526Z,101995.56
2018-10-05T05:06:46.605Z,101994.17
2018-10-05T05:09:14.685Z,101990.91
2018-10-05T05:11:42.753Z,101993.11
2018-10-05T05:14:10.882Z,101996.22
2018-10-05T05:16:38.947Z,101997.84
2018-10-05T05:19:07.205Z,101997.02
2018-10-05T05:21:35.275Z,101999.23
2018-10-05T05:24:03.353Z,101996.79
2018-10-05T05:26:31.461Z,102000.95
2018-10-05T05:28:59.553Z,101999.56
2018-10-05T05:31:27.675Z,101997.34
2018-10-05T05:33:55.797Z,102000.69
2018-10-05T05:36:23.849Z,102003.23
2018-10-05T05:38:51.927Z,102003.80
2018-10-05T05:41:20.018Z,102002.97
2018-10-05T05:43:48.257Z,102003.30
2018-10-05T05:46:16.333Z,102008.03
2018-10-05T05:48:44.707Z,102004.45
2018-10-05T05:51:12.788Z,102001.42
2018-10-05T05:53:40.873Z,101999.47
2018-10-05T05:56:08.941Z,101995.86
2018-10-05T05:58:37.069Z,102000.86
2018-10-05T06:01:07.013Z,101999.96
2018-10-05T06:03:35.915Z,101995.23
2018-10-05T06:06:04.153Z,101997.12
2018-10-05T06:08:33.566Z,101993.19
2018-10-05T06:11:01.626Z,101999.30
2018-10-05T06:13:29.917Z,101999.23
2018-10-05T06:15:58.437Z,102003.40
2018-10-05T06:18:26.481Z,102000.63
2018-10-05T06:20:54.541Z,102006.67
2018-10-05T06:23:23.617Z,102003.33
2018-10-05T06:25:51.697Z,102012.09
2018-10-05T06:28:19.773Z,102006.77
2018-10-05T06:30:47.964Z,102004.75
2018-10-05T06:33:16.007Z,102009.90
2018-10-05T06:35:44.030Z,102013.07
2018-10-05T06:38:12.186Z,102016.04
2018-10-05T06:40:40.216Z,102022.25
2018-10-05T06:43:08.335Z,102012.61
2018-10-05T06:45:36.635Z,102020.48
2018-10-05T06:48:04.824Z,102023.30
2018-10-05T06:50:32.924Z,102022.16
2018-10-05T06:53:00.996Z,102023.22
2018-10-05T06:55:29.249Z,102018.53
2018-10-05T06:57:57.313Z,102025.71
2018-10-05T07:00:25.389Z,102030.84
2018-10-05T07:02:53.454Z,102022.34
2018-10-05T07:05:21.550Z,102021.70
2018-10-05T07:07:49.742Z,102016.03
2018-10-05T07:10:17.696Z,102013.66
2018-10-05T07:12:45.753Z,102018.72
2018-10-05T07:15:13.829Z,102011.66
2018-10-05T07:17:41.903Z,102013.39
2018-10-05T07:20:09.985Z,102007.17
2018-10-05T07:22:38.095Z,102008.30
2018-10-05T07:25:06.134Z,102005.75
2018-10-05T07:27:34.261Z,102001.15
2018-10-05T07:30:02.341Z,102003.59
2018-10-05T07:32:30.409Z,101999.87
2018-10-05T07:34:58.489Z,101999.18
2018-10-05T07:37:26.831Z,102002.44
2018-10-05T07:39:54.829Z,102002.18
2018-10-05T07:42:22.897Z,102000.92
2018-10-05T07:44:50.966Z,102004.77
2018-10-05T07:47:19.037Z,102006.37
2018-10-05T07:49:47.106Z,102006.98
2018-10-05T07:52:15.177Z,102014.08
2018-10-05T07:54:43.245Z,102008.14
2018-10-05T07:57:11.318Z,102011.86
2018-10-05T07:59:39.385Z,102007.78
2018-10-05T08:02:08.096Z,102015.48
2018-10-05T08:04:36.426Z,102007.09
2018-10-05T08:07:04.509Z,102001.71
2018-10-05T08:09:32.598Z,102006.26
2018-10-05T08:12:00.702Z,102009.05
2018-10-05T08:14:28.833Z,102004.05
2018-10-05T08:16:56.921Z,102003.79
2018-10-05T08:19:25.053Z,102003.67
2018-10-05T08:21:53.120Z,102010.19
2018-10-05T08:24:21.220Z,102009.37
2018-10-05T08:26:49.281Z,102005.17
2018-10-05T08:29:17.371Z,102000.63
2018-10-05T08:31:45.457Z,101997.75
2018-10-05T08:34:13.761Z,101988.89
2018-10-05T08:36:41.658Z,101997.28
2018-10-05T08:39:11.149Z,101991.11
2018-10-05T08:41:39.212Z,101996.82
2018-10-05T08:44:07.292Z,101996.83
2018-10-05T08:46:35.360Z,101992.89
2018-10-05T08:49:03.428Z,101997.39
2018-10-05T08:51:31.574Z,101991.00
2018-10-05T08:53:59.590Z,101986.65
2018-10-05T08:56:27.661Z,101991.66
2018-10-05T08:58:55.721Z,101988.84
2018-10-05T09:01:23.831Z,101979.85
2018-10-05T09:03:52.327Z,101978.05
2018-10-05T09:06:20.413Z,101966.89
2018-10-05T09:08:48.515Z,101974.12
2018-10-05T09:11:16.650Z,101971.70
2018-10-05T09:13:44.691Z,101963.30
2018-10-05T09:16:12.780Z,101958.52
2018-10-05T09:18:40.874Z,101961.23
2018-10-05T09:21:08.986Z,101959.97
2018-10-05T09:23:37.113Z,101954.12
2018-10-05T09:26:05.185Z,101954.94
2018-10-05T09:28:33.270Z,101946.58
2018-10-05T09:31:01.361Z,101948.59
2018-10-05T09:33:29.441Z,101940.80
2018-10-05T09:35:57.545Z,101939.62
2018-10-05T09:38:25.632Z,101935.05
2018-10-05T09:40:53.769Z,101930.73
2018-10-05T09:43:21.832Z,101928.83
2018-10-05T09:45:49.913Z,101926.73
2018-10-05T09:48:17.974Z,101931.59
2018-10-05T09:50:46.060Z,101929.03
2018-10-05T09:53:14.142Z,101924.91
2018-10-05T09:55:42.223Z,101921.83
2018-10-05T09:58:10.332Z,101920.12
2018-10-05T10:00:43.861Z,101908.64
2018-10-05T10:03:17.276Z,101911.34
2018-10-05T10:05:45.405Z,101908.55
2018-10-05T10:08:13.620Z,101901.93
2018-10-05T10:10:41.732Z,101904.54
2018-10-05T10:13:09.908Z,101908.69
2018-10-05T10:15:38.085Z,101905.44
2018-10-05T10:18:06.505Z,101905.34
2018-10-05T10:20:34.665Z,101892.19
2018-10-05T10:23:02.901Z,101890.97
2018-10-05T10:25:30.978Z,101896.56
2018-10-05T10:27:59.084Z,101898.21
2018-10-05T10:30:27.163Z,101894.77
2018-10-05T10:32:55.361Z,101894.14
2018-10-05T10:35:23.545Z,101898.08
2018-10-05T10:37:51.747Z,101888.73
2018-10-05T10:40:19.905Z,101887.94
2018-10-05T10:42:48.154Z,101877.55
2018-10-05T10:45:16.452Z,101875.64
2018-10-05T10:47:44.635Z,101878.89
2018-10-05T10:50:12.827Z,101868.62
2018-10-05T10:52:41.040Z,101857.16
2018-10-05T10:55:09.310Z,101862.61
2018-10-05T10:57:37.354Z,101861.37
2018-10-05T11:00:05.501Z,101852.61
2018-10-05T11:02:33.668Z,101851.88
2018-10-05T11:05:01.889Z,101850.52
2018-10-05T11:07:30.001Z,101844.13
2018-10-05T11:09:58.201Z,101839.31
2018-10-05T11:12:26.285Z,101840.98
2018-10-05T11:14:54.389Z,101840.17
2018-10-05T11:17:22.521Z,101834.90
2018-10-05T11:19:50.625Z,101837.13
2018-10-05T11:22:18.741Z,101826.75
2018-10-05T11:24:46.867Z,101830.11
2018-10-05T11:27:14.896Z,101825.41
2018-10-05T11:29:43.083Z,101824.08
2018-10-05T11:32:11.169Z,101815.02
2018-10-05T11:34:39.288Z,101814.66
2018-10-05T11:37:07.390Z,101813.73
2018-10-05T11:39:35.473Z,101801.86
2018-10-05T11:42:03.642Z,101798.63
2018-10-05T11:44:31.725Z,101787.59
2018-10-05T11:46:59.828Z,101782.13
2018-10-05T11:49:27.909Z,101769.66
2018-10-05T11:51:55.986Z,101768.30
2018-10-05T11:54:24.144Z,101767.23
2018-10-05T11:56:52.234Z,101769.78
2018-10-05T11:59:20.305Z,101765.34
2018-10-05T12:01:48.395Z,101760.17
2018-10-05T12:04:16.466Z,101753.27
2018-10-05T12:06:44.609Z,101752.02
2018-10-05T12:09:12.677Z,101742.59
2018-10-05T12:11:40.754Z,101733.49
2018-10-05T12:14:08.830Z,101730.22
2018-10-05T12:16:36.897Z,101729.50
2018-10-05T12:19:05.061Z,101728.77
2018-10-05T12:21:33.147Z,101718.19
2018-10-05T12:24:01.278Z,101717.09
2018-10-05T12:26:29.474Z,101711.81
2018-10-05T12:28:57.550Z,101704.11
2018-10-05T12:31:25.620Z,101706.34
2018-10-05T12:33:53.721Z,101702.45
2018-10-05T12:36:21.859Z,101697.53
2018-10-05T12:38:49.935Z,101698.19
2018-10-05T12:41:18.010Z,101696.02
2018-10-05T12:43:46.102Z,101685.70
2018-10-05T12:46:14.165Z,101686.91
2018-10-05T12:48:42.241Z,101682.17
2018-10-05T12:51:10.308Z,101679.27
2018-10-05T12:53:38.385Z,101677.00
2018-10-05T12:56:06.469Z,101677.04
2018-10-05T12:58:34.547Z,101673.21
2018-10-05T13:01:02.621Z,101664.72
2018-10-05T13:03:30.933Z,101669.35
2018-10-05T13:05:58.998Z,101663.23
2018-10-05T13:08:27.190Z,101658.25
2018-10-05T13:10:55.265Z,101650.87
2018-10-05T13:13:23.350Z,101645.45
2018-10-05T13:15:51.410Z,101640.37
2018-10-05T13:18:19.489Z,101630.16
2018-10-05T13:20:47.550Z,101630.96
2018-10-05T13:23:15.635Z,101630.20
2018-10-05T13:25:43.769Z,101625.08
2018-10-05T13:28:11.888Z,101620.97
2018-10-05T13:30:40.033Z,101616.05
2018-10-05T13:33:08.121Z,101616.36
2018-10-05T13:35:36.257Z,101614.85
2018-10-05T13:38:04.337Z,101615.09
2018-10-05T13:40:32.403Z,101610.08
2018-10-05T13:43:00.472Z,101603.64
2018-10-05T13:45:28.548Z,101603.27
2018-10-05T13:47:56.633Z,101609.37
2018-10-05T13:50:24.709Z,101600.80
2018-10-05T13:52:52.922Z,101602.34
2018-10-05T13:55:21.024Z,101596.37
2018-10-05T13:57:49.085Z,101602.95
2018-10-05T14:00:17.174Z,101593.94
2018-10-05T14:02:45.311Z,101591.86
2018-10-05T14:05:13.441Z,101594.98
2018-10-05T14:07:41.501Z,101590.63
2018-10-05T14:10:09.581Z,101587.03
2018-10-05T14:12:37.642Z,101580.02
2018-10-05T14:15:05.718Z,101574.72
2018-10-05T14:17:33.796Z,101576.45
2018-10-05T14:20:02.029Z,101563.12
2018-10-05T14:22:30.084Z,101564.91
2018-10-05T14:24:58.161Z,101565.20
2018-10-05T14:27:26.240Z,101560.09
2018-10-05T14:29:54.309Z,101556.39
2018-10-05T14:32:22.373Z,101557.42
2018-10-05T14:34:50.449Z,101551.33
2018-10-05T14:37:18.513Z,101554.66
2018-10-05T14:39:46.594Z,101549.89
2018-10-05T14:42:14.681Z,101541.70
2018-10-05T14:44:42.759Z,101541.98
2018-10-05T14:47:10.816Z,101532.05
2018-10-05T14:49:38.977Z,101535.72
2018-10-05T14:52:07.042Z,101542.16
2018-10-05T14:54:35.117Z,101532.23
2018-10-05T14:57:03.311Z,101530.57
2018-10-05T14:59:31.337Z,101524.38
2018-10-05T15:01:59.485Z,101520.21
2018-10-05T15:04:27.590Z,101514.42
2018-10-05T15:06:55.709Z,101512.85
2018-10-05T15:09:23.745Z,101506.44
2018-10-05T15:11:51.809Z,101511.09
2018-10-05T15:14:19.888Z,101503.05
2018-10-05T15:16:47.957Z,101504.47
2018-10-05T15:19:16.038Z,101500.88
2018-10-05T15:21:44.101Z,101500.11
2018-10-05T15:24:12.174Z,101492.70
2018-10-05T15:26:40.229Z,101494.95
2018-10-05T15:29:08.298Z,101486.88
2018-10-05T15:31:36.361Z,101481.62
2018-10-05T15:34:04.545Z,101487.27
2018-10-05T15:36:32.693Z,101485.47
2018-10-05T15:39:00.758Z,101476.80
2018-10-05T15:41:28.821Z,101474.19
2018-10-05T15:43:56.887Z,101473.80
2018-10-05T15:47:31.065Z,101466.55
2018-10-05T15:49:59.942Z,101466.72
2018-10-05T15:52:32.234Z,101467.95
2018-10-05T15:55:00.947Z,101464.89
2018-10-05T15:57:29.409Z,101458.82
2018-10-05T15:59:58.191Z,101460.61
2018-10-05T16:02:28.696Z,101465.02
2018-10-05T16:04:56.773Z,101459.17
2018-10-05T16:07:24.925Z,101460.77
2018-10-05T16:09:53.025Z,101471.03
2018-10-05T16:12:21.181Z,101464.54
2018-10-05T16:14:49.201Z,101463.91
2018-10-05T16:17:17.324Z,101457.86
2018-10-05T16:19:45.394Z,101448.40
2018-10-05T16:22:13.470Z,101447.55
2018-10-05T16:24:43.172Z,101452.54
2018-10-05T16:27:11.957Z,101447.67
2018-10-05T16:29:40.190Z,101443.84
2018-10-05T16:32:09.301Z,101442.20
2018-10-05T16:34:37.374Z,101448.01
2018-10-05T16:37:05.849Z,101446.55
2018-10-05T16:39:34.113Z,101445.70
2018-10-05T16:42:02.233Z,101441.23
2018-10-05T16:44:30.379Z,101444.20
2018-10-05T16:46:58.455Z,101440.09
2018-10-05T16:49:26.549Z,101441.42
2018-10-05T16:51:54.621Z,101440.94
2018-10-05T16:54:22.702Z,101438.45
2018-10-05T16:56:50.804Z,101441.22
2018-10-05T16:59:18.907Z,101439.55
2018-10-05T17:01:46.985Z,101439.47
2018-10-05T17:04:15.066Z,101440.00
2018-10-05T17:06:43.350Z,101429.30
2018-10-05T17:09:12.489Z,101429.78
2018-10-05T17:11:42.005Z,101435.97
2018-10-05T17:14:10.133Z,101428.44
2018-10-05T17:16:38.253Z,101438.41
2018-10-05T17:19:07.429Z,101432.50
2018-10-05T17:21:35.719Z,101435.44
2018-10-05T17:24:03.820Z,101435.95
2018-10-05T17:26:31.886Z,101440.07
2018-10-05T17:28:59.964Z,101441.56
2018-10-05T17:31:28.109Z,101440.02
2018-10-05T17:33:56.187Z,101436.09
2018-10-05T17:36:24.544Z,101441.01
2018-10-05T17:38:52.629Z,101439.06
2018-10-05T17:41:20.723Z,101438.52
2018-10-05T17:43:48.785Z,101439.41
2018-10-05T17:46:16.902Z,101441.08
2018-10-05T17:48:44.972Z,101437.14
2018-10-05T17:51:13.073Z,101441.83
2018-10-05T17:53:41.200Z,101436.13
2018-10-05T17:56:09.342Z,101432.81
2018-10-05T17:58:37.469Z,101430.35
2018-10-05T18:01:05.541Z,101423.22
2018-10-05T18:03:33.628Z,101424.28
2018-10-05T18:06:01.709Z,101422.66
2018-10-05T18:08:29.807Z,101420.34
2018-10-05T18:10:57.957Z,101411.59
2018-10-05T18:13:26.021Z,101414.29
2018-10-05T18:15:54.208Z,101412.16
2018-10-05T18:18:22.278Z,101409.22
2018-10-05T18:20:50.333Z,101408.29
2018-10-05T18:23:18.409Z,101401.76
2018-10-05T18:25:46.473Z,101403.63
2018-10-05T18:28:14.534Z,101394.49
2018-10-05T18:30:42.598Z,101394.95
2018-10-05T18:33:10.680Z,101395.03
2018-10-05T18:35:38.933Z,101394.50
2018-10-05T18:38:07.034Z,101397.00
2018-10-05T18:40:35.101Z,101392.44
2018-10-05T18:43:03.161Z,101391.11
2018-10-05T18:45:31.221Z,101385.16
2018-10-05T18:47:59.497Z,101388.97
2018-10-05T18:50:27.553Z,101379.98
2018-10-05T18:52:55.617Z,101388.64
2018-10-05T18:55:23.913Z,101391.42
2018-10-05T18:57:51.998Z,101382.90
2018-10-05T19:00:20.129Z,101384.70
2018-10-05T19:02:48.140Z,101384.76
2018-10-05T19:05:16.206Z,101384.48
2018-10-05T19:07:44.274Z,101379.53
2018-10-05T19:10:12.336Z,101378.39
2018-10-05T19:12:40.402Z,101381.83
2018-10-05T19:15:08.473Z,101374.53
2018-10-05T19:17:36.546Z,101373.39
2018-10-05T19:20:04.616Z,101372.49
2018-10-05T19:22:32.688Z,101367.91
2018-10-05T19:25:00.741Z,101359.00
2018-10-05T19:27:28.858Z,101367.42
2018-10-05T19:29:56.914Z,101373.42
2018-10-05T19:32:24.982Z,101371.05
2018-10-05T19:34:53.065Z,101373.06
2018-10-05T19:37:21.129Z,101364.16
2018-10-05T19:39:49.194Z,101359.64
2018-10-05T19:42:17.277Z,101352.09
2018-10-05T19:44:45.330Z,101352.95
2018-10-05T19:47:13.410Z,101347.20
2018-10-05T19:49:41.514Z,101343.63
2018-10-05T19:52:10.114Z,101349.21
2018-10-05T19:54:38.205Z,101340.06
2018-10-05T19:57:06.278Z,101339.97
2018-10-05T19:59:34.362Z,101338.61
2018-10-05T20:02:02.463Z,101344.30
2018-10-05T20:04:30.494Z,101337.25
2018-10-05T20:06:58.557Z,101340.61
2018-10-05T20:09:26.737Z,101334.58
2018-10-05T20:11:54.784Z,101332.97
2018-10-05T20:14:22.881Z,101329.85
2018-10-05T20:16:51.223Z,101329.16
2018-10-05T20:19:19.299Z,101330.81
2018-10-05T20:21:47.364Z,101323.76
2018-10-05T20:24:15.456Z,101322.23
2018-10-05T20:26:43.498Z,101319.60
2018-10-05T20:29:11.600Z,101314.97
2018-10-05T20:31:39.661Z,101317.30
2018-10-05T20:34:07.737Z,101312.66
2018-10-05T20:36:35.935Z,101312.99
2018-10-05T20:39:05.310Z,101310.81
2018-10-05T20:41:33.377Z,101312.53
2018-10-05T20:44:01.489Z,101307.57
2018-10-05T20:46:29.624Z,101298.39
2018-10-05T20:48:57.695Z,101298.97
2018-10-05T20:51:25.784Z,101303.15
2018-10-05T20:53:53.842Z,101297.94
2018-10-05T20:56:21.963Z,101291.80
2018-10-05T20:58:50.042Z,101290.16
2018-10-05T21:01:18.143Z,101287.16
2018-10-05T21:03:46.222Z,101289.03
2018-10-05T21:06:14.280Z,101281.37
2018-10-05T21:08:42.358Z,101280.91
2018-10-05T21:11:10.562Z,101280.24
2018-10-05T21:13:38.628Z,101277.33
2018-10-05T21:16:06.706Z,101275.38
2018-10-05T21:18:34.780Z,101271.47
2018-10-05T21:21:02.929Z,101270.56
2018-10-05T21:23:30.996Z,101268.58
2018-10-05T21:25:59.069Z,101270.80
2018-10-05T21:28:27.154Z,101265.80
2018-10-05T21:30:55.217Z,101263.27
2018-10-05T21:33:23.397Z,101264.88
2018-10-05T21:35:51.442Z,101261.76
2018-10-05T21:38:19.505Z,101263.62
2018-10-05T21:40:47.573Z,101264.09
2018-10-05T21:43:15.721Z,101256.92
2018-10-05T21:45:43.788Z,101262.71
2018-10-05T21:48:11.886Z,101255.55
2018-10-05T21:50:39.956Z,101254.73
2018-10-05T21:53:08.013Z,101259.72
2018-10-05T21:55:36.106Z,101256.48
2018-10-05T21:58:04.268Z,101249.99
2018-10-05T22:00:37.394Z,101246.75
2018-10-05T22:03:05.537Z,101241.86
2018-10-05T22:05:33.609Z,101244.41
2018-10-05T22:08:01.674Z,101236.64
2018-10-05T22:10:29.740Z,101231.64
2018-10-05T22:12:57.809Z,101231.28
2018-10-05T22:15:26.090Z,101227.78
2018-10-05T22:17:54.143Z,101229.06
2018-10-05T22:20:22.454Z,101224.43
2018-10-05T22:22:50.601Z,101229.97
2018-10-05T22:25:18.681Z,101224.15
2018-10-05T22:27:46.841Z,101221.93
2018-10-05T22:30:14.902Z,101218.81
2018-10-05T22:32:43.014Z,101217.06
2018-10-05T22:35:11.141Z,101217.51
2018-10-05T22:37:39.427Z,101211.84
2018-10-05T22:40:07.533Z,101211.12
2018-10-05T22:42:35.602Z,101209.26
2018-10-05T22:45:03.665Z,101210.53
2018-10-05T22:47:31.730Z,101207.83
2018-10-05T22:49:59.789Z,101210.58
2018-10-05T22:52:27.901Z,101203.39
2018-10-05T22:54:55.949Z,101203.59
2018-10-05T22:57:24.026Z,101209.02
2018-10-05T22:59:52.081Z,101206.20
2018-10-05T23:02:20.253Z,101200.75
2018-10-05T23:04:48.412Z,101200.06
2018-10-05T23:07:16.477Z,101200.38
2018-10-05T23:09:44.538Z,101189.98
2018-10-05T23:12:12.632Z,101190.89
2018-10-05T23:14:40.705Z,101180.71
2018-10-05T23:17:08.862Z,101183.02
2018-10-05T23:19:36.933Z,101181.02
2018-10-05T23:22:05.051Z,101185.63
2018-10-05T23:24:33.173Z,101177.81
2018-10-05T23:27:01.270Z,101181.84
2018-10-05T23:29:29.404Z,101179.72
2018-10-05T23:31:57.525Z,101179.02
2018-10-05T23:34:25.625Z,101169.64
2018-10-05T23:36:53.693Z,101165.35
2018-10-05T23:39:21.790Z,101167.65
2018-10-05T23:41:49.869Z,101163.36
2018-10-05T23:44:17.921Z,101159.64
2018-10-05T23:46:45.968Z,101163.06
2018-10-05T23:49:14.128Z,101159.00
2018-10-05T23:51:42.245Z,101164.06
2018-10-05T23:54:10.318Z,101163.94
2018-10-05T23:56:38.386Z,101159.87
2018-10-05T23:59:06.461Z,101157.53
